Station Historical Data
Daily Summary for January 2, 2017 Units:  English    Metric   Both
« Previous Day
Next Day »
Daily Weekly Monthly Yearly Custom
  High: Low: Average:
Temperature: 41.5 °F 25.7 °F 35.2 °F
Dew Point: 37.0 °F 20.5 °F 29.4 °F
Humidity: 90% 69% 79%
Wind Speed: 5.0mph 0.0mph 1.3mph
Wind Gust: 10.0mph - -
Wind- - East
Pressure: 30.36 in 30.05 in -
Precipitation: 0.00 in    
Historical Graphs
 
 
Tabular Data for January 2, 2017
Time Temperature Dew Point Pressure Wind Wind Speed Wind Gust Humidity Rainfall Rate (Hourly)
00:04 25.7 °F 21.0 °F 30.34 in ESE 1.0 mph 3.0 mph 82% 0.00 in
00:09 25.9 °F 21.2 °F 30.34 in ESE 1.0 mph 3.0 mph 82% 0.00 in
00:14 26.0 °F 21.0 °F 30.34 in ESE 2.0 mph 3.0 mph 81% 0.00 in
00:19 26.0 °F 21.0 °F 30.34 in Calm   3.0 mph 81% 0.00 in
00:24 26.1 °F 21.1 °F 30.33 in ESE 1.0 mph 3.0 mph 81% 0.00 in
00:29 26.3 °F 21.0 °F 30.33 in ESE 1.0 mph 3.0 mph 80% 0.00 in
00:34 26.5 °F 21.2 °F 30.33 in ESE 1.0 mph 3.0 mph 80% 0.00 in
00:39 26.7 °F 21.4 °F 30.33 in ESE 2.0 mph 2.0 mph 80% 0.00 in
00:44 27.0 °F 21.4 °F 30.33 in East 3.0 mph 3.0 mph 79% 0.00 in
00:49 27.4 °F 21.7 °F 30.33 in Calm   3.0 mph 79% 0.00 in
00:54 27.7 °F 22.0 °F 30.33 in Calm   3.0 mph 79% 0.00 in
00:59 27.9 °F 21.9 °F 30.33 in SE 1.0 mph 3.0 mph 78% 0.00 in
01:04 28.0 °F 22.0 °F 30.33 in Calm   2.0 mph 78% 0.00 in
01:09 28.1 °F 21.8 °F 30.33 in Calm     77% 0.00 in
01:14 28.2 °F 21.9 °F 30.32 in Calm   3.0 mph 77% 0.00 in
01:19 28.1 °F 21.8 °F 30.33 in Calm   3.0 mph 77% 0.00 in
01:24 27.9 °F 21.6 °F 30.33 in Calm   2.0 mph 77% 0.00 in
01:29 27.8 °F 21.5 °F 30.33 in Calm   3.0 mph 77% 0.00 in
01:34 27.6 °F 21.3 °F 30.34 in Calm   2.0 mph 77% 0.00 in
01:39 27.4 °F 21.4 °F 30.34 in Calm   2.0 mph 78% 0.00 in
01:44 27.2 °F 21.2 °F 30.34 in Calm   1.0 mph 78% 0.00 in
01:49 26.7 °F 21.1 °F 30.34 in Calm     79% 0.00 in
01:54 26.0 °F 20.7 °F 30.34 in Calm     80% 0.00 in
01:59 25.7 °F 20.7 °F 30.34 in Calm   2.0 mph 81% 0.00 in
02:04 25.8 °F 20.8 °F 30.34 in Calm   2.0 mph 81% 0.00 in
02:09 25.9 °F 20.6 °F 30.35 in Calm   1.0 mph 80% 0.00 in
02:14 25.8 °F 20.5 °F 30.35 in Calm   2.0 mph 80% 0.00 in
02:19 25.8 °F 20.8 °F 30.35 in Calm     81% 0.00 in
02:24 26.3 °F 21.0 °F 30.35 in East 1.0 mph 3.0 mph 80% 0.00 in
02:29 26.7 °F 21.1 °F 30.35 in ENE 1.0 mph 4.0 mph 79% 0.00 in
02:34 26.9 °F 21.3 °F 30.34 in ENE 2.0 mph 5.0 mph 79% 0.00 in
02:39 27.2 °F 21.2 °F 30.35 in ENE 1.0 mph 4.0 mph 78% 0.00 in
02:44 27.4 °F 21.1 °F 30.35 in Calm   2.0 mph 77% 0.00 in
02:49 27.4 °F 21.1 °F 30.35 in ENE 1.0 mph 2.0 mph 77% 0.00 in
02:54 27.2 °F 20.9 °F 30.36 in Calm     77% 0.00 in
02:59 26.9 °F 21.0 °F 30.36 in Calm   2.0 mph 78% 0.00 in
03:04 26.6 °F 20.7 °F 30.36 in Calm   1.0 mph 78% 0.00 in
03:09 26.2 °F 20.6 °F 30.36 in Calm   1.0 mph 79% 0.00 in
03:14 26.1 °F 20.5 °F 30.36 in Calm   2.0 mph 79% 0.00 in
03:19 26.1 °F 20.8 °F 30.36 in Calm   2.0 mph 80% 0.00 in
03:24 26.1 °F 20.8 °F 30.36 in Calm     80% 0.00 in
03:29 26.1 °F 20.8 °F 30.36 in Calm     80% 0.00 in
03:34 25.9 °F 20.9 °F 30.36 in Calm     81% 0.00 in
03:39 25.9 °F 20.9 °F 30.35 in Calm     81% 0.00 in
03:44 25.9 °F 20.9 °F 30.35 in Calm     81% 0.00 in
03:49 26.0 °F 21.0 °F 30.35 in ENE 2.0 mph 4.0 mph 81% 0.00 in
03:54 26.3 °F 21.3 °F 30.34 in ENE 1.0 mph 3.0 mph 81% 0.00 in
03:59 26.6 °F 21.3 °F 30.35 in East 3.0 mph 3.0 mph 80% 0.00 in
04:04 27.2 °F 21.5 °F 30.35 in Calm   5.0 mph 79% 0.00 in
04:09 27.4 °F 21.7 °F 30.35 in ENE 1.0 mph 5.0 mph 79% 0.00 in
04:14 27.5 °F 21.8 °F 30.35 in ENE 1.0 mph 3.0 mph 79% 0.00 in
04:19 27.4 °F 21.7 °F 30.35 in ENE 1.0 mph 3.0 mph 79% 0.00 in
04:24 27.1 °F 21.5 °F 30.35 in Calm   1.0 mph 79% 0.00 in
04:29 27.2 °F 21.5 °F 30.34 in Calm   2.0 mph 79% 0.00 in
04:35 27.4 °F 21.7 °F 30.34 in East 1.0 mph 5.0 mph 79% 0.00 in
04:44 27.4 °F 21.7 °F 30.34 in Calm   2.0 mph 79% 0.00 in
04:49 27.2 °F 21.5 °F 30.34 in ENE 1.0 mph 3.0 mph 79% 0.00 in
04:54 27.1 °F 21.5 °F 30.33 in East 3.0 mph 3.0 mph 79% 0.00 in
04:59 27.2 °F 21.5 °F 30.33 in East 2.0 mph 5.0 mph 79% 0.00 in
05:04 27.2 °F 21.5 °F 30.34 in ESE 1.0 mph 3.0 mph 79% 0.00 in
05:09 27.2 °F 21.2 °F 30.33 in East 1.0 mph 3.0 mph 78% 0.00 in
05:14 27.2 °F 21.2 °F 30.33 in East 1.0 mph 3.0 mph 78% 0.00 in
05:19 27.2 °F 21.2 °F 30.33 in East 1.0 mph 3.0 mph 78% 0.00 in
05:24 27.1 °F 21.2 °F 30.33 in East 1.0 mph 3.0 mph 78% 0.00 in
05:29 27.3 °F 21.3 °F 30.33 in ENE 2.0 mph 5.0 mph 78% 0.00 in
05:34 27.4 °F 21.4 °F 30.33 in ENE 2.0 mph 5.0 mph 78% 0.00 in
05:39 27.6 °F 21.6 °F 30.33 in East 2.0 mph 5.0 mph 78% 0.00 in
05:44 27.7 °F 21.4 °F 30.33 in East 3.0 mph 5.0 mph 77% 0.00 in
05:49 27.7 °F 21.4 °F 30.33 in East 1.0 mph 5.0 mph 77% 0.00 in
05:54 27.6 °F 21.3 °F 30.33 in East 2.0 mph 5.0 mph 77% 0.00 in
05:59 27.4 °F 21.4 °F 30.33 in East 3.0 mph 3.0 mph 78% 0.00 in
06:04 27.4 °F 21.4 °F 30.32 in ENE 2.0 mph 3.0 mph 78% 0.00 in
06:09 27.7 °F 21.7 °F 30.32 in ENE 2.0 mph 5.0 mph 78% 0.00 in
06:14 28.3 °F 22.0 °F 30.32 in East 1.0 mph 6.0 mph 77% 0.00 in
06:19 28.7 °F 22.1 °F 30.32 in ENE 2.0 mph 6.0 mph 76% 0.00 in
06:24 29.0 °F 22.4 °F 30.32 in ENE 2.0 mph 6.0 mph 76% 0.00 in
06:29 28.9 °F 22.3 °F 30.32 in ENE 1.0 mph 5.0 mph 76% 0.00 in
06:34 29.0 °F 22.4 °F 30.31 in ENE 1.0 mph 3.0 mph 76% 0.00 in
06:39 29.3 °F 22.7 °F 30.32 in Calm   2.0 mph 76% 0.00 in
06:44 29.6 °F 22.6 °F 30.32 in Calm     75% 0.00 in
06:49 29.7 °F 22.7 °F 30.31 in ENE 2.0 mph 2.0 mph 75% 0.00 in
06:54 29.7 °F 22.7 °F 30.31 in ENE 1.0 mph 3.0 mph 75% 0.00 in
06:59 29.7 °F 22.7 °F 30.31 in ENE 1.0 mph 3.0 mph 75% 0.00 in
07:04 29.4 °F 22.8 °F 30.32 in ENE 1.0 mph 3.0 mph 76% 0.00 in
07:09 29.4 °F 22.8 °F 30.31 in Calm     76% 0.00 in
07:14 29.7 °F 22.7 °F 30.31 in NE 1.0 mph 4.0 mph 75% 0.00 in
07:19 30.1 °F 23.1 °F 30.31 in NE 2.0 mph 4.0 mph 75% 0.00 in
07:24 30.1 °F 22.8 °F 30.31 in NE 1.0 mph 5.0 mph 74% 0.00 in
07:29 30.4 °F 23.1 °F 30.32 in NE 2.0 mph 5.0 mph 74% 0.00 in
07:34 30.5 °F 23.2 °F 30.32 in NE 2.0 mph 4.0 mph 74% 0.00 in
07:39 30.4 °F 23.1 °F 30.32 in Calm   3.0 mph 74% 0.00 in
07:44 29.8 °F 22.8 °F 30.32 in Calm     75% 0.00 in
07:49 29.8 °F 23.2 °F 30.32 in ENE 2.0 mph 2.0 mph 76% 0.00 in
07:54 30.0 °F 23.0 °F 30.32 in Calm   3.0 mph 75% 0.00 in
07:59 30.1 °F 23.1 °F 30.32 in Calm   3.0 mph 75% 0.00 in
08:04 30.2 °F 23.5 °F 30.32 in ENE 1.0 mph 2.0 mph 76% 0.00 in
08:09 30.2 °F 23.5 °F 30.33 in ENE 1.0 mph 4.0 mph 76% 0.00 in
08:14 30.6 °F 23.6 °F 30.33 in NE 1.0 mph 4.0 mph 75% 0.00 in
08:19 30.7 °F 23.7 °F 30.33 in NE 2.0 mph 3.0 mph 75% 0.00 in
08:24 31.0 °F 24.0 °F 30.33 in NE 2.0 mph 3.0 mph 75% 0.00 in
08:29 31.1 °F 23.8 °F 30.33 in NE 2.0 mph 5.0 mph 74% 0.00 in
08:34 31.3 °F 24.0 °F 30.33 in NE 2.0 mph 5.0 mph 74% 0.00 in
08:39 31.6 °F 24.3 °F 30.33 in NE 2.0 mph 5.0 mph 74% 0.00 in
08:44 31.8 °F 24.5 °F 30.33 in ENE 5.0 mph 7.0 mph 74% 0.00 in
08:49 32.1 °F 24.4 °F 30.33 in NE 2.0 mph 6.0 mph 73% 0.00 in
08:54 32.3 °F 24.6 °F 30.33 in ENE 3.0 mph 5.0 mph 73% 0.00 in
08:59 32.4 °F 24.7 °F 30.33 in East 2.0 mph 5.0 mph 73% 0.00 in
09:05 32.5 °F 24.8 °F 30.33 in ENE 2.0 mph 6.0 mph 73% 0.00 in
09:14 32.8 °F 25.1 °F 30.32 in ENE 2.0 mph 7.0 mph 73% 0.00 in
09:19 33.0 °F 25.3 °F 30.33 in ENE 3.0 mph 5.0 mph 73% 0.00 in
09:24 33.2 °F 25.5 °F 30.33 in ENE 1.0 mph 4.0 mph 73% 0.00 in
09:29 33.4 °F 25.7 °F 30.33 in East 1.0 mph 5.0 mph 73% 0.00 in
09:34 33.6 °F 25.9 °F 30.32 in East 2.0 mph 5.0 mph 73% 0.00 in
09:39 33.7 °F 25.6 °F 30.33 in East 2.0 mph 5.0 mph 72% 0.00 in
09:44 33.8 °F 25.7 °F 30.33 in East 2.0 mph 5.0 mph 72% 0.00 in
09:49 33.9 °F 25.8 °F 30.32 in NE 3.0 mph 5.0 mph 72% 0.00 in
09:54 34.1 °F 26.0 °F 30.33 in Calm   3.0 mph 72% 0.00 in
09:59 34.2 °F 26.1 °F 30.33 in ENE 2.0 mph 4.0 mph 72% 0.00 in
10:04 34.4 °F 26.3 °F 30.33 in ENE 1.0 mph 5.0 mph 72% 0.00 in
10:09 34.6 °F 26.5 °F 30.33 in ENE 2.0 mph 5.0 mph 72% 0.00 in
10:14 34.8 °F 26.7 °F 30.33 in ENE 2.0 mph 5.0 mph 72% 0.00 in
10:19 35.0 °F 26.9 °F 30.32 in ENE 2.0 mph 5.0 mph 72% 0.00 in
10:24 35.3 °F 27.2 °F 30.32 in East 3.0 mph 5.0 mph 72% 0.00 in
10:29 35.7 °F 27.2 °F 30.32 in NE 2.0 mph 5.0 mph 71% 0.00 in
10:34 35.9 °F 27.4 °F 30.32 in East 1.0 mph 4.0 mph 71% 0.00 in
10:39 36.2 °F 27.7 °F 30.32 in ENE 2.0 mph 5.0 mph 71% 0.00 in
10:44 36.5 °F 28.3 °F 30.32 in ENE 2.0 mph 5.0 mph 72% 0.00 in
10:49 36.8 °F 27.9 °F 30.32 in ENE 2.0 mph 6.0 mph 70% 0.00 in
10:54 36.9 °F 28.0 °F 30.32 in ENE 1.0 mph 2.0 mph 70% 0.00 in
10:59 37.1 °F 28.2 °F 30.31 in ENE 1.0 mph 5.0 mph 70% 0.00 in
11:04 37.4 °F 28.9 °F 30.31 in ENE 1.0 mph 3.0 mph 71% 0.00 in
11:09 37.6 °F 29.0 °F 30.31 in East 2.0 mph 4.0 mph 71% 0.00 in
11:14 37.9 °F 29.0 °F 30.30 in ENE 2.0 mph 4.0 mph 70% 0.00 in
11:19 38.1 °F 29.2 °F 30.30 in ENE 2.0 mph 3.0 mph 70% 0.00 in
11:24 38.4 °F 29.5 °F 30.30 in ENE 2.0 mph 5.0 mph 70% 0.00 in
11:29 38.6 °F 29.7 °F 30.29 in Calm   4.0 mph 70% 0.00 in
11:34 38.8 °F 29.5 °F 30.29 in ENE 2.0 mph 4.0 mph 69% 0.00 in
11:39 38.8 °F 29.8 °F 30.29 in East 1.0 mph 3.0 mph 70% 0.00 in
11:44 38.8 °F 29.8 °F 30.29 in East 2.0 mph 3.0 mph 70% 0.00 in
11:49 38.8 °F 29.8 °F 30.28 in East 2.0 mph 6.0 mph 70% 0.00 in
11:54 38.9 °F 29.9 °F 30.29 in East 2.0 mph 6.0 mph 70% 0.00 in
11:59 39.0 °F 30.4 °F 30.28 in ENE 2.0 mph 3.0 mph 71% 0.00 in
12:04 39.0 °F 30.4 °F 30.28 in ENE 2.0 mph 3.0 mph 71% 0.00 in
12:09 39.1 °F 30.5 °F 30.27 in NE 2.0 mph 4.0 mph 71% 0.00 in
12:14 39.2 °F 30.6 °F 30.27 in East 2.0 mph 4.0 mph 71% 0.00 in
12:19 39.3 °F 30.7 °F 30.27 in ENE 1.0 mph 4.0 mph 71% 0.00 in
12:24 39.4 °F 30.8 °F 30.26 in ENE 1.0 mph 3.0 mph 71% 0.00 in
12:29 39.5 °F 30.9 °F 30.26 in NE 1.0 mph 3.0 mph 71% 0.00 in
12:34 39.4 °F 31.1 °F 30.26 in NE 2.0 mph 5.0 mph 72% 0.00 in
12:39 39.6 °F 31.3 °F 30.26 in ENE 1.0 mph 3.0 mph 72% 0.00 in
12:44 39.6 °F 31.3 °F 30.26 in NE 2.0 mph 4.0 mph 72% 0.00 in
12:49 39.7 °F 31.4 °F 30.25 in NE 2.0 mph 4.0 mph 72% 0.00 in
12:54 39.7 °F 31.4 °F 30.25 in East 2.0 mph 5.0 mph 72% 0.00 in
12:59 39.8 °F 31.8 °F 30.26 in NE 2.0 mph 5.0 mph 73% 0.00 in
13:04 39.9 °F 31.6 °F 30.25 in NE 2.0 mph 3.0 mph 72% 0.00 in
13:09 40.1 °F 31.8 °F 30.25 in NE 1.0 mph 3.0 mph 72% 0.00 in
13:14 40.1 °F 31.8 °F 30.25 in NE 2.0 mph 4.0 mph 72% 0.00 in
13:19 40.4 °F 32.4 °F 30.25 in NE 2.0 mph 3.0 mph 73% 0.00 in
13:24 40.6 °F 32.3 °F 30.25 in NE 2.0 mph 3.0 mph 72% 0.00 in
13:29 40.7 °F 32.7 °F 30.24 in NE 2.0 mph 4.0 mph 73% 0.00 in
13:34 40.9 °F 32.6 °F 30.25 in NE 2.0 mph 4.0 mph 72% 0.00 in
13:39 40.9 °F 32.9 °F 30.25 in NE 2.0 mph 4.0 mph 73% 0.00 in
13:44 41.1 °F 33.1 °F 30.24 in NE 2.0 mph 3.0 mph 73% 0.00 in
13:49 41.2 °F 33.2 °F 30.24 in Calm   3.0 mph 73% 0.00 in
13:54 41.1 °F 33.1 °F 30.24 in Calm   4.0 mph 73% 0.00 in
13:59 41.1 °F 33.1 °F 30.25 in Calm   2.0 mph 73% 0.00 in
14:04 41.2 °F 33.5 °F 30.25 in ENE 1.0 mph 2.0 mph 74% 0.00 in
14:09 41.2 °F 33.5 °F 30.25 in Calm   1.0 mph 74% 0.00 in
14:14 41.3 °F 33.6 °F 30.25 in Calm     74% 0.00 in
14:19 41.2 °F 33.5 °F 30.26 in Calm     74% 0.00 in
14:24 41.0 °F 33.3 °F 30.26 in Calm     74% 0.00 in
14:29 40.9 °F 33.2 °F 30.25 in Calm     74% 0.00 in
14:34 40.7 °F 33.1 °F 30.25 in Calm     74% 0.00 in
14:39 40.7 °F 33.1 °F 30.24 in Calm     74% 0.00 in
14:44 40.7 °F 33.1 °F 30.25 in ENE 2.0 mph 3.0 mph 74% 0.00 in
14:49 40.8 °F 33.2 °F 30.25 in ENE 2.0 mph 3.0 mph 74% 0.00 in
14:54 40.6 °F 33.0 °F 30.25 in ENE 2.0 mph 3.0 mph 74% 0.00 in
14:59 40.5 °F 32.9 °F 30.26 in ENE 1.0 mph 3.0 mph 74% 0.00 in
15:04 40.4 °F 32.8 °F 30.25 in ENE 2.0 mph 4.0 mph 74% 0.00 in
15:09 40.5 °F 32.9 °F 30.25 in ENE 3.0 mph 4.0 mph 74% 0.00 in
15:14 40.6 °F 33.6 °F 30.25 in Calm   3.0 mph 76% 0.00 in
15:19 40.8 °F 34.5 °F 30.25 in ENE 1.0 mph 3.0 mph 78% 0.00 in
15:24 41.0 °F 35.0 °F 30.26 in ENE 1.0 mph 3.0 mph 79% 0.00 in
15:29 41.2 °F 35.5 °F 30.26 in East 2.0 mph 2.0 mph 80% 0.00 in
15:34 41.4 °F 36.0 °F 30.26 in East 1.0 mph 4.0 mph 81% 0.00 in
15:39 41.5 °F 36.1 °F 30.26 in ESE 1.0 mph 4.0 mph 81% 0.00 in
15:44 41.5 °F 36.4 °F 30.26 in ENE 3.0 mph 7.0 mph 82% 0.00 in
15:49 41.5 °F 36.4 °F 30.26 in ESE 2.0 mph 7.0 mph 82% 0.00 in
15:54 41.3 °F 36.5 °F 30.25 in ESE 2.0 mph 5.0 mph 83% 0.00 in
15:59 41.3 °F 36.8 °F 30.25 in ESE 3.0 mph 6.0 mph 84% 0.00 in
16:04 41.1 °F 36.9 °F 30.25 in ESE 2.0 mph 4.0 mph 85% 0.00 in
16:09 40.9 °F 37.0 °F 30.24 in ESE 1.0 mph 4.0 mph 86% 0.00 in
16:14 40.8 °F 36.9 °F 30.24 in Calm   5.0 mph 86% 0.00 in
16:19 40.6 °F 37.0 °F 30.24 in ESE 2.0 mph 5.0 mph 87% 0.00 in
16:24 40.5 °F 36.9 °F 30.23 in ESE 2.0 mph 7.0 mph 87% 0.00 in
16:29 40.3 °F 37.0 °F 30.23 in SE 2.0 mph 6.0 mph 88% 0.00 in
16:34 40.2 °F 36.9 °F 30.24 in SSE 3.0 mph 7.0 mph 88% 0.00 in
16:39 40.1 °F 36.8 °F 30.24 in ESE 3.0 mph 8.0 mph 88% 0.00 in
16:44 40.0 °F 37.0 °F 30.23 in SE 1.0 mph 8.0 mph 89% 0.00 in
16:49 39.9 °F 36.9 °F 30.22 in SE 1.0 mph 7.0 mph 89% 0.00 in
16:54 39.9 °F 36.9 °F 30.22 in Calm   8.0 mph 89% 0.00 in
16:59 39.8 °F 36.8 °F 30.21 in Calm   5.0 mph 89% 0.00 in
17:04 39.7 °F 37.0 °F 30.21 in ESE 3.0 mph 8.0 mph 90% 0.00 in
17:09 39.7 °F 37.0 °F 30.20 in ESE 3.0 mph 8.0 mph 90% 0.00 in
17:14 39.6 °F 36.9 °F 30.20 in East 2.0 mph 7.0 mph 90% 0.00 in
17:19 39.6 °F 36.9 °F 30.19 in ESE 3.0 mph 7.0 mph 90% 0.00 in
17:24 39.5 °F 36.8 °F 30.19 in ESE 3.0 mph 8.0 mph 90% 0.00 in
17:29 39.4 °F 36.7 °F 30.19 in SE 3.0 mph 5.0 mph 90% 0.00 in
17:34 39.3 °F 36.6 °F 30.20 in East 2.0 mph 5.0 mph 90% 0.00 in
17:39 39.4 °F 36.7 °F 30.21 in NE 1.0 mph 4.0 mph 90% 0.00 in
17:44 39.5 °F 36.8 °F 30.22 in NE 1.0 mph 3.0 mph 90% 0.00 in
17:49 39.6 °F 36.9 °F 30.22 in ENE 1.0 mph 3.0 mph 90% 0.00 in
17:54 39.7 °F 36.7 °F 30.22 in ENE 1.0 mph 2.0 mph 89% 0.00 in
17:59 39.7 °F 36.7 °F 30.22 in East 1.0 mph 3.0 mph 89% 0.00 in
18:04 39.8 °F 36.8 °F 30.22 in East 1.0 mph 3.0 mph 89% 0.00 in
18:09 39.8 °F 36.8 °F 30.22 in NE 4.0 mph 5.0 mph 89% 0.00 in
18:14 39.8 °F 36.8 °F 30.21 in East 2.0 mph 5.0 mph 89% 0.00 in
18:19 39.8 °F 36.5 °F 30.21 in East 1.0 mph 5.0 mph 88% 0.00 in
18:24 39.8 °F 36.5 °F 30.22 in East 1.0 mph 3.0 mph 88% 0.00 in
18:29 39.8 °F 36.5 °F 30.22 in East 1.0 mph 3.0 mph 88% 0.00 in
18:34 39.8 °F 36.5 °F 30.22 in East 1.0 mph 3.0 mph 88% 0.00 in
18:39 39.9 °F 36.6 °F 30.22 in East 1.0 mph 3.0 mph 88% 0.00 in
18:44 39.9 °F 36.6 °F 30.22 in Calm   3.0 mph 88% 0.00 in
18:49 39.9 °F 36.6 °F 30.22 in Calm   3.0 mph 88% 0.00 in
18:54 39.9 °F 36.6 °F 30.22 in Calm   3.0 mph 88% 0.00 in
18:59 40.0 °F 36.4 °F 30.22 in Calm     87% 0.00 in
19:04 40.0 °F 36.4 °F 30.21 in ESE 2.0 mph 3.0 mph 87% 0.00 in
19:09 40.0 °F 36.4 °F 30.20 in ESE 1.0 mph 5.0 mph 87% 0.00 in
19:14 40.0 °F 36.4 °F 30.20 in South 1.0 mph 5.0 mph 87% 0.00 in
19:19 40.0 °F 36.4 °F 30.19 in SSE 1.0 mph 5.0 mph 87% 0.00 in
19:24 40.0 °F 36.4 °F 30.19 in SE 2.0 mph 5.0 mph 87% 0.00 in
19:29 40.1 °F 36.5 °F 30.18 in SE 2.0 mph 5.0 mph 87% 0.00 in
19:34 40.1 °F 36.5 °F 30.18 in ESE 3.0 mph 5.0 mph 87% 0.00 in
19:39 40.1 °F 36.2 °F 30.17 in SE 2.0 mph 5.0 mph 86% 0.00 in
19:44 40.2 °F 36.3 °F 30.17 in SE 1.0 mph 5.0 mph 86% 0.00 in
19:49 40.2 °F 36.3 °F 30.16 in SE 1.0 mph 6.0 mph 86% 0.00 in
19:54 40.2 °F 36.3 °F 30.16 in SE 2.0 mph 7.0 mph 86% 0.00 in
19:59 40.2 °F 36.3 °F 30.16 in SE 3.0 mph 7.0 mph 86% 0.00 in
20:04 40.3 °F 36.4 °F 30.16 in South 3.0 mph 7.0 mph 86% 0.00 in
20:09 40.3 °F 36.1 °F 30.15 in SE 3.0 mph 7.0 mph 85% 0.00 in
20:14 40.2 °F 36.3 °F 30.14 in SE 2.0 mph 7.0 mph 86% 0.00 in
20:19 40.3 °F 36.4 °F 30.13 in Calm   5.0 mph 86% 0.00 in
20:24 40.2 °F 36.3 °F 30.12 in SE 2.0 mph 6.0 mph 86% 0.00 in
20:29 40.2 °F 36.3 °F 30.11 in East 3.0 mph 7.0 mph 86% 0.00 in
20:34 40.1 °F 36.2 °F 30.10 in ESE 4.0 mph 9.0 mph 86% 0.00 in
20:39 40.1 °F 36.2 °F 30.09 in SSE 4.0 mph 9.0 mph 86% 0.00 in
20:44 40.1 °F 36.2 °F 30.10 in SE 3.0 mph 9.0 mph 86% 0.00 in
20:49 40.1 °F 36.2 °F 30.10 in SE 2.0 mph 8.0 mph 86% 0.00 in
20:54 40.2 °F 36.3 °F 30.09 in SE 2.0 mph 5.0 mph 86% 0.00 in
20:59 40.2 °F 36.3 °F 30.10 in ESE 2.0 mph 6.0 mph 86% 0.00 in
21:04 40.3 °F 36.4 °F 30.10 in ESE 1.0 mph 6.0 mph 86% 0.00 in
21:09 40.4 °F 36.2 °F 30.11 in Calm   4.0 mph 85% 0.00 in
21:14 40.6 °F 36.4 °F 30.11 in South 1.0 mph 4.0 mph 85% 0.00 in
21:19 40.8 °F 36.6 °F 30.11 in SSE 3.0 mph 5.0 mph 85% 0.00 in
21:24 40.9 °F 36.7 °F 30.11 in SSE 2.0 mph 3.0 mph 85% 0.00 in
21:29 41.0 °F 36.8 °F 30.12 in Calm   4.0 mph 85% 0.00 in
21:34 41.1 °F 36.9 °F 30.12 in South 2.0 mph 5.0 mph 85% 0.00 in
21:39 41.2 °F 37.0 °F 30.12 in SSE 3.0 mph 5.0 mph 85% 0.00 in
21:44 41.2 °F 37.0 °F 30.12 in South 1.0 mph 3.0 mph 85% 0.00 in
21:49 41.1 °F 36.9 °F 30.11 in SSE 1.0 mph 4.0 mph 85% 0.00 in
21:54 41.1 °F 36.9 °F 30.11 in SE 1.0 mph 4.0 mph 85% 0.00 in
21:59 40.9 °F 36.7 °F 30.10 in SE 1.0 mph 3.0 mph 85% 0.00 in
22:04 41.0 °F 36.8 °F 30.10 in SE 1.0 mph 4.0 mph 85% 0.00 in
22:09 41.0 °F 36.8 °F 30.10 in SE 1.0 mph 4.0 mph 85% 0.00 in
22:14 40.9 °F 36.7 °F 30.09 in SE 1.0 mph 3.0 mph 85% 0.00 in
22:19 40.8 °F 36.6 °F 30.10 in SSE 1.0 mph 4.0 mph 85% 0.00 in
22:24 40.9 °F 37.0 °F 30.10 in Calm   1.0 mph 86% 0.00 in
22:29 40.9 °F 37.0 °F 30.10 in Calm     86% 0.00 in
22:34 40.9 °F 37.0 °F 30.10 in Calm     86% 0.00 in
22:39 40.8 °F 36.9 °F 30.09 in Calm     86% 0.00 in
22:44 40.8 °F 36.9 °F 30.09 in Calm     86% 0.00 in
22:49 40.8 °F 36.9 °F 30.09 in Calm     86% 0.00 in
22:54 40.7 °F 36.8 °F 30.09 in Calm     86% 0.00 in
22:59 40.6 °F 36.7 °F 30.09 in Calm   2.0 mph 86% 0.00 in
23:04 40.6 °F 36.7 °F 30.09 in ESE 1.0 mph 6.0 mph 86% 0.00 in
23:09 40.6 °F 36.7 °F 30.09 in ESE 1.0 mph 6.0 mph 86% 0.00 in
23:14 40.6 °F 36.7 °F 30.08 in ESE 2.0 mph 5.0 mph 86% 0.00 in
23:19 40.6 °F 36.7 °F 30.08 in SSE 2.0 mph 3.0 mph 86% 0.00 in
23:24 40.6 °F 36.7 °F 30.07 in ESE 2.0 mph 4.0 mph 86% 0.00 in
23:29 40.5 °F 36.6 °F 30.07 in ESE 2.0 mph 4.0 mph 86% 0.00 in
23:34 40.5 °F 36.6 °F 30.07 in SE 2.0 mph 7.0 mph 86% 0.00 in
23:39 40.6 °F 36.7 °F 30.07 in SE 2.0 mph 8.0 mph 86% 0.00 in
23:44 40.7 °F 36.8 °F 30.06 in East 3.0 mph 5.0 mph 86% 0.00 in
23:49 40.7 °F 36.8 °F 30.06 in ESE 2.0 mph 6.0 mph 86% 0.00 in
23:54 40.7 °F 36.8 °F 30.05 in SE 1.0 mph 10.0 mph 86% 0.00 in
23:59 40.7 °F 36.8 °F 30.05 in ESE 2.0 mph 10.0 mph 86% 0.00 in
Buffalo, New York, USA
Compliments of Weather Underground - 2.5 mb